createdAt,value
2023-11-25T00:00:00.519Z,2.03
2023-11-25T00:05:00.437Z,1.95
2023-11-25T00:10:00.594Z,2.53
2023-11-25T00:15:00.500Z,2.22
2023-11-25T00:20:00.432Z,2
2023-11-25T00:25:00.453Z,2.61
2023-11-25T00:30:00.444Z,1.55
2023-11-25T00:35:00.474Z,1.16
2023-11-25T00:40:00.564Z,1.26
2023-11-25T00:45:00.463Z,0.95
2023-11-25T00:50:00.463Z,1.04
2023-11-25T00:55:00.465Z,1.11
2023-11-25T01:00:00.479Z,0.85
2023-11-25T01:05:00.567Z,1.04
2023-11-25T01:10:00.458Z,1.31
2023-11-25T01:15:00.447Z,1.48
2023-11-25T01:20:00.582Z,1.61
2023-11-25T01:25:00.486Z,1.78
2023-11-25T01:30:00.477Z,1.46
2023-11-25T01:35:00.486Z,1.65
2023-11-25T01:40:00.433Z,2.09
2023-11-25T01:45:00.455Z,1.69
2023-11-25T01:50:00.434Z,1.54
2023-11-25T01:55:00.456Z,1.34
2023-11-25T02:00:00.443Z,1.68
2023-11-25T02:05:00.586Z,1.37
2023-11-25T02:10:00.476Z,1.7
2023-11-25T02:15:00.455Z,1.93
2023-11-25T02:20:00.470Z,1.84
2023-11-25T02:25:00.454Z,2.34
2023-11-25T02:30:00.485Z,1.82
2023-11-25T02:35:00.448Z,2.19
2023-11-25T02:40:00.486Z,2.27
2023-11-25T02:45:00.477Z,2.43
2023-11-25T02:50:00.453Z,2.78
2023-11-25T02:55:00.468Z,2.41
2023-11-25T03:00:00.467Z,3.04
2023-11-25T03:05:00.443Z,2.16
2023-11-25T03:10:00.446Z,2.48
2023-11-25T03:15:00.458Z,2.19
2023-11-25T03:20:00.470Z,2.1
2023-11-25T03:25:00.459Z,2.04
2023-11-25T03:30:00.448Z,2.51
2023-11-25T03:35:02.091Z,1.94
2023-11-25T03:40:00.444Z,2
2023-11-25T03:45:00.445Z,2.4
2023-11-25T03:50:00.561Z,2.22
2023-11-25T03:55:00.481Z,2.34
2023-11-25T04:00:00.460Z,1.96
2023-11-25T04:05:00.614Z,2.3
2023-11-25T04:10:00.477Z,2.09
2023-11-25T04:15:00.465Z,2.35
2023-11-25T04:20:00.457Z,2.04
2023-11-25T04:25:00.470Z,1.92
2023-11-25T04:30:00.457Z,2.29
2023-11-25T04:35:00.440Z,2.65
2023-11-25T04:40:00.445Z,2.07
2023-11-25T04:45:00.474Z,2.36
2023-11-25T04:50:00.450Z,2.83
2023-11-25T04:55:00.464Z,3
2023-11-25T05:00:00.451Z,2.43
2023-11-25T05:05:00.434Z,2.77
2023-11-25T05:10:00.544Z,2.63
2023-11-25T05:15:00.467Z,3.25
2023-11-25T05:20:00.614Z,2.84
2023-11-25T05:25:00.458Z,3.46
2023-11-25T05:30:00.476Z,3.56
2023-11-25T05:35:00.447Z,3.89
2023-11-25T05:40:00.452Z,3.66
2023-11-25T05:45:00.467Z,4.27
2023-11-25T05:50:00.456Z,3.57
2023-11-25T05:55:00.471Z,3.58
2023-11-25T06:00:00.479Z,4.71
2023-11-25T06:05:00.746Z,5.52
2023-11-25T06:10:00.492Z,5.7
2023-11-25T06:15:00.476Z,5.61
2023-11-25T06:20:00.478Z,5.75
2023-11-25T06:25:00.454Z,4.82
2023-11-25T06:30:00.458Z,5.22
2023-11-25T06:35:00.536Z,4.17
2023-11-25T06:40:00.462Z,4.01
2023-11-25T06:45:00.445Z,4.57
2023-11-25T06:50:00.460Z,3.46
2023-11-25T06:55:00.588Z,3.42
2023-11-25T07:00:00.451Z,3.88
2023-11-25T07:05:00.462Z,4.47
2023-11-25T07:10:00.461Z,4.67
2023-11-25T07:15:00.464Z,5.67
2023-11-25T07:20:00.466Z,4.5
2023-11-25T07:25:00.469Z,3.95
2023-11-25T07:30:00.441Z,3.76
2023-11-25T07:35:00.452Z,3.83
2023-11-25T07:40:00.460Z,4.11
2023-11-25T07:45:00.466Z,3.66
2023-11-25T07:50:00.455Z,3.78
2023-11-25T07:55:00.619Z,3.51
2023-11-25T08:00:00.454Z,3.15
2023-11-25T08:05:00.574Z,2.96
2023-11-25T08:10:00.447Z,3.86
2023-11-25T08:15:00.484Z,4.1
2023-11-25T08:20:00.466Z,3.55
2023-11-25T08:25:00.455Z,3.37
2023-11-25T08:30:00.464Z,4.79
2023-11-25T08:35:00.467Z,3.76
2023-11-25T08:40:00.450Z,3.25
2023-11-25T08:45:00.450Z,3.23
2023-11-25T08:50:01.046Z,3.35
2023-11-25T08:55:00.582Z,3.3
2023-11-25T09:00:00.519Z,3.28
2023-11-25T09:05:11.582Z,2.78
2023-11-25T09:10:00.514Z,2.74
2023-11-25T09:15:00.464Z,3.55
2023-11-25T09:20:00.554Z,3.3
2023-11-25T09:25:00.458Z,15.53
2023-11-25T09:30:00.477Z,3.82
2023-11-25T09:35:00.626Z,3.64
2023-11-25T09:40:00.440Z,3.22
2023-11-25T09:45:00.478Z,3.58
2023-11-25T09:50:00.573Z,3.83
2023-11-25T09:55:00.585Z,3.15
2023-11-25T10:00:00.467Z,3.82
2023-11-25T10:05:00.438Z,6.29
2023-11-25T10:10:00.440Z,3.24
2023-11-25T10:15:00.456Z,3.57
2023-11-25T10:20:00.458Z,4.5
2023-11-25T10:25:00.436Z,3.09
2023-11-25T10:30:00.528Z,2.5
2023-11-25T10:35:00.443Z,3.98
2023-11-25T10:40:00.498Z,3.33
2023-11-25T10:45:00.444Z,3.44
2023-11-25T10:50:00.626Z,4.1
2023-11-25T10:55:00.523Z,7.43
2023-11-25T11:00:00.443Z,5.37
2023-11-25T11:05:00.448Z,3.73
2023-11-25T11:10:00.446Z,3.69
2023-11-25T11:15:00.451Z,3.54
2023-11-25T11:20:00.493Z,3.52
2023-11-25T11:25:00.474Z,4.03
2023-11-25T11:30:00.459Z,8.81
2023-11-25T11:35:00.519Z,3.47
2023-11-25T11:40:00.454Z,4.59
2023-11-25T11:45:00.841Z,4.03
2023-11-25T11:50:00.486Z,3.84
2023-11-25T11:55:00.496Z,4.1
2023-11-25T12:00:00.492Z,4.86
2023-11-25T12:05:01.247Z,5.5
2023-11-25T12:10:00.466Z,3.77
2023-11-25T12:15:00.473Z,4.98
2023-11-25T12:20:00.565Z,3.89
2023-11-25T12:25:00.442Z,4.46
2023-11-25T12:30:00.425Z,4.6
2023-11-25T12:35:00.575Z,5.45
2023-11-25T12:40:00.471Z,4.69
2023-11-25T12:45:00.443Z,4.39
2023-11-25T12:50:00.575Z,5.83
2023-11-25T12:55:00.456Z,6.4
2023-11-25T13:00:00.480Z,5.15
2023-11-25T13:05:00.473Z,6.04
2023-11-25T13:10:00.613Z,6.25
2023-11-25T13:15:00.569Z,6.42
2023-11-25T13:20:00.556Z,7.24
2023-11-25T13:25:00.463Z,10.86
2023-11-25T13:30:00.530Z,10.07
2023-11-25T13:35:00.477Z,10.85
2023-11-25T13:40:00.447Z,9.8
2023-11-25T13:45:03.449Z,10.91
2023-11-25T13:50:00.636Z,12.81
2023-11-25T13:55:00.488Z,14.89
2023-11-25T14:00:00.448Z,12.09
2023-11-25T14:05:00.580Z,12.49
2023-11-25T14:10:00.449Z,10.98
2023-11-25T14:15:00.441Z,11.06
2023-11-25T14:20:00.618Z,9.61
2023-11-25T14:25:00.434Z,5.82
2023-11-25T14:30:00.488Z,6.18
2023-11-25T14:35:00.788Z,7.35
2023-11-25T14:40:02.095Z,6.41
2023-11-25T14:45:00.464Z,6.83
2023-11-25T14:50:00.529Z,3.44
2023-11-25T14:55:00.471Z,4.34
2023-11-25T15:00:00.459Z,4.43
2023-11-25T15:05:00.607Z,3.65
2023-11-25T15:10:00.509Z,2.83
2023-11-25T15:15:00.464Z,2.91
2023-11-25T15:20:00.623Z,3.9
2023-11-25T15:25:00.452Z,3.18
2023-11-25T15:30:00.857Z,3.84
2023-11-25T15:35:00.565Z,4.23
2023-11-25T15:40:00.463Z,6.28
2023-11-25T15:45:00.450Z,4.52
2023-11-25T15:50:00.719Z,3.88
2023-11-25T15:55:00.441Z,3.69
2023-11-25T16:00:00.454Z,4.11
2023-11-25T16:05:00.767Z,5.07
2023-11-25T16:10:00.451Z,4.64
2023-11-25T16:15:00.518Z,5.32
2023-11-25T16:20:00.504Z,3.84
2023-11-25T16:25:00.459Z,4.43
2023-11-25T16:30:00.461Z,5.19
2023-11-25T16:35:00.696Z,5.03
2023-11-25T16:40:00.714Z,4.39
2023-11-25T16:45:00.439Z,3.91
2023-11-25T16:50:00.535Z,3.97
2023-11-25T16:55:00.446Z,3.35
2023-11-25T17:00:00.466Z,3.29
2023-11-25T17:05:00.832Z,3.85
2023-11-25T17:10:00.492Z,4.26
2023-11-25T17:15:00.469Z,14.7
2023-11-25T17:20:01.008Z,5.49
2023-11-25T17:25:00.453Z,5.63
2023-11-25T17:30:00.441Z,5.32
2023-11-25T17:35:01.114Z,7.22
2023-11-25T17:40:00.446Z,6.56
2023-11-25T17:45:00.491Z,6.6
2023-11-25T17:50:00.551Z,6.49
2023-11-25T17:55:00.450Z,6.36
2023-11-25T18:00:00.773Z,7.05
2023-11-25T18:05:00.729Z,6.24
2023-11-25T18:10:00.456Z,6
2023-11-25T18:15:00.482Z,5.54
2023-11-25T18:20:00.599Z,5.21
2023-11-25T18:25:00.457Z,5.14
2023-11-25T18:30:00.440Z,5.04
2023-11-25T18:35:00.524Z,6.08
2023-11-25T18:40:00.437Z,5.82
2023-11-25T18:45:00.451Z,5.98
2023-11-25T18:50:00.534Z,6.13
2023-11-25T18:55:00.458Z,6.62
2023-11-25T19:00:00.500Z,6.67
2023-11-25T19:05:00.521Z,6.68
2023-11-25T19:10:00.444Z,6.3
2023-11-25T19:15:00.480Z,6.4
2023-11-25T19:20:00.789Z,5.21
2023-11-25T19:25:00.460Z,5.07
2023-11-25T19:30:00.453Z,3.96
2023-11-25T19:35:00.554Z,3.85
2023-11-25T19:40:00.452Z,3.93
2023-11-25T19:45:00.465Z,4.45
2023-11-25T19:50:00.581Z,4.06
2023-11-25T19:55:00.457Z,4.35
2023-11-25T20:00:00.434Z,3.97
2023-11-25T20:05:01.021Z,4.29
2023-11-25T20:10:00.493Z,4.3
2023-11-25T20:15:00.448Z,3.09
2023-11-25T20:20:00.817Z,2.5
2023-11-25T20:25:00.465Z,2.91
2023-11-25T20:30:00.451Z,2.84
2023-11-25T20:35:00.555Z,3.02
2023-11-25T20:40:00.438Z,3.33
2023-11-25T20:45:00.466Z,8.08
2023-11-25T20:50:00.511Z,4.32
2023-11-25T20:55:00.458Z,4.61
2023-11-25T21:00:00.464Z,4.82
2023-11-25T21:05:00.550Z,4.68
2023-11-25T21:10:00.473Z,4.75
2023-11-25T21:15:00.456Z,4.99
2023-11-25T21:20:00.624Z,4.55
2023-11-25T21:25:00.468Z,8.53
2023-11-25T21:30:00.452Z,10.86
2023-11-25T21:35:00.574Z,7.49
2023-11-25T21:40:16.656Z,6.24
2023-11-25T21:45:00.478Z,14.88
2023-11-25T21:50:00.522Z,5.5
2023-11-25T21:55:00.458Z,6.29
2023-11-25T22:00:00.460Z,6.06
2023-11-25T22:05:00.538Z,6.24
2023-11-25T22:10:00.472Z,6.99
2023-11-25T22:15:00.448Z,7.06
2023-11-25T22:20:00.620Z,7.38
2023-11-25T22:25:00.442Z,6.71
2023-11-25T22:30:00.455Z,6.83
2023-11-25T22:35:00.520Z,7.42
2023-11-25T22:40:00.504Z,6.94
2023-11-25T22:45:00.455Z,6.97
2023-11-25T22:50:00.616Z,6.94
2023-11-25T22:55:00.469Z,7.1
2023-11-25T23:00:00.445Z,5.06
2023-11-25T23:05:00.614Z,4.59
2023-11-25T23:10:00.436Z,4.33
2023-11-25T23:15:00.736Z,4.65
2023-11-25T23:20:00.628Z,4.88
2023-11-25T23:25:00.460Z,3.91
2023-11-25T23:30:00.478Z,4.85
2023-11-25T23:35:00.590Z,4.7
2023-11-25T23:40:00.446Z,4.91
2023-11-25T23:45:00.468Z,4.49
2023-11-25T23:50:00.595Z,4.69
2023-11-25T23:55:00.444Z,4.78
